Orbital elements of COSMOS 252 DEB
| Launched | 31 October 1968 |
| Flight ended | – |
| Launch site | Tyuratam Missile and Space Center, Kazakhstan (Also known as Baikonur Cosmodrome) |
| Owner | Commonwealth of Independent States (former USSR) |
| NORAD ID | 19309 |
| Date fetched |
Epoch osculation |
Inc. [°] |
Ecc. | RA asc node [hr] |
Arg Peri. [°] |
Mean anom [°] |
Mean motion [rev/day] |
Abs. mag |
| Date fetched |
Epoch osculation |
Inc. [°] |
Ecc. | RA asc node [hr] |
Arg Peri. [°] |
Mean anom [°] |
Mean motion [rev/day] |
Abs. mag |
| 2026 May 04 17:57 | 2026 Apr 30 14:21:45 | 62.3821 | 0.08862 | 5.1453 | 259.0540 | 90.9645 | 13.04535 | – |
| 2026 May 03 17:57 | 2026 Apr 30 14:21:45 | 62.3821 | 0.08862 | 5.1453 | 259.0540 | 90.9645 | 13.04535 | – |
| 2026 May 02 17:57 | 2026 Apr 30 14:21:45 | 62.3821 | 0.08862 | 5.1453 | 259.0540 | 90.9645 | 13.04535 | – |
| 2026 May 01 17:56 | 2026 Apr 30 14:21:45 | 62.3821 | 0.08862 | 5.1453 | 259.0540 | 90.9645 | 13.04535 | – |
| 2026 Apr 30 17:56 | 2026 Apr 30 14:21:45 | 62.3821 | 0.08862 | 5.1453 | 259.0540 | 90.9645 | 13.04535 | – |
| 2026 Apr 29 17:57 | 2026 Apr 24 07:30:38 | 62.3802 | 0.08863 | 6.1988 | 257.7563 | 90.9645 | 13.04535 | – |
| 2026 Apr 28 17:56 | 2026 Apr 24 07:30:38 | 62.3802 | 0.08863 | 6.1988 | 257.7563 | 90.9645 | 13.04535 | – |
| 2026 Apr 27 17:58 | 2026 Apr 24 07:30:38 | 62.3802 | 0.08863 | 6.1988 | 257.7563 | 90.9645 | 13.04535 | – |
| 2026 Apr 26 17:58 | 2026 Apr 24 07:30:38 | 62.3802 | 0.08863 | 6.1988 | 257.7563 | 90.9645 | 13.04535 | – |
| 2026 Apr 25 17:58 | 2026 Apr 24 07:30:38 | 62.3802 | 0.08863 | 6.1988 | 257.7563 | 90.9645 | 13.04535 | – |
| 2026 Apr 24 17:59 | 2026 Apr 24 07:30:38 | 62.3802 | 0.08863 | 6.1988 | 257.7563 | 90.9645 | 13.04535 | – |
| 2026 Apr 23 17:57 | 2026 Apr 19 06:05:34 | 62.3800 | 0.08864 | 7.0469 | 256.7071 | 90.9645 | 13.04535 | – |
| 2026 Apr 22 17:57 | 2026 Apr 19 06:05:34 | 62.3800 | 0.08864 | 7.0469 | 256.7071 | 90.9645 | 13.04535 | – |
| 2026 Apr 21 17:57 | 2026 Apr 19 06:05:34 | 62.3800 | 0.08864 | 7.0469 | 256.7071 | 90.9645 | 13.04535 | – |
| 2026 Apr 20 17:57 | 2026 Apr 19 06:05:34 | 62.3800 | 0.08864 | 7.0469 | 256.7071 | 90.9645 | 13.04535 | – |
| 2026 Apr 19 17:58 | 2026 Apr 19 06:05:34 | 62.3800 | 0.08864 | 7.0469 | 256.7071 | 90.9645 | 13.04535 | – |
| 2026 Apr 18 17:56 | 2026 Apr 12 17:43:17 | 62.3794 | 0.08865 | 8.1391 | 255.3602 | 90.9645 | 13.04535 | – |
| 2026 Apr 16 17:57 | 2026 Apr 12 17:43:17 | 62.3794 | 0.08865 | 8.1391 | 255.3602 | 90.9645 | 13.04535 | – |
| 2026 Apr 14 17:57 | 2026 Apr 12 17:43:17 | 62.3794 | 0.08865 | 8.1391 | 255.3602 | 90.9645 | 13.04535 | – |
| 2026 Apr 13 17:57 | 2026 Apr 12 17:43:17 | 62.3794 | 0.08865 | 8.1391 | 255.3602 | 90.9645 | 13.04535 | – |
| 2026 Apr 12 17:57 | 2026 Apr 08 08:51:36 | 62.3800 | 0.08865 | 8.8715 | 254.4551 | 90.9645 | 13.04535 | – |
| 2026 Apr 11 17:57 | 2026 Apr 08 08:51:36 | 62.3800 | 0.08865 | 8.8715 | 254.4551 | 90.9645 | 13.04535 | – |
| 2026 Apr 10 17:58 | 2026 Apr 08 08:51:36 | 62.3800 | 0.08865 | 8.8715 | 254.4551 | 90.9645 | 13.04535 | – |
| 2026 Apr 09 18:01 | 2026 Apr 08 08:51:36 | 62.3800 | 0.08865 | 8.8715 | 254.4551 | 90.9645 | 13.04535 | – |
| 2026 Apr 08 17:57 | 2026 Apr 08 08:51:36 | 62.3800 | 0.08865 | 8.8715 | 254.4551 | 90.9645 | 13.04535 | – |
| 2026 Apr 07 17:57 | 2026 Apr 02 03:50:47 | 62.3807 | 0.08866 | 9.9123 | 253.1721 | 90.9645 | 13.04535 | – |